sensor_id;sensor_type;location;lat;lon;timestamp;temperature;humidity
25436;DHT22;13363;52.772;-3.890;2022-09-24T00:03:39;11.70;99.90
25436;DHT22;13363;52.772;-3.890;2022-09-24T00:06:07;11.70;99.90
25436;DHT22;13363;52.772;-3.890;2022-09-24T00:08:34;11.90;99.90
25436;DHT22;13363;52.772;-3.890;2022-09-24T00:11:03;11.80;99.90
25436;DHT22;13363;52.772;-3.890;2022-09-24T00:13:29;11.80;99.90
25436;DHT22;13363;52.772;-3.890;2022-09-24T00:15:55;11.70;99.90
25436;DHT22;13363;52.772;-3.890;2022-09-24T00:18:21;11.80;99.90
25436;DHT22;13363;52.772;-3.890;2022-09-24T00:20:47;11.70;99.90
25436;DHT22;13363;52.772;-3.890;2022-09-24T00:23:13;11.60;99.90
25436;DHT22;13363;52.772;-3.890;2022-09-24T00:25:42;11.60;99.90
25436;DHT22;13363;52.772;-3.890;2022-09-24T00:28:27;11.70;99.90
25436;DHT22;13363;52.772;-3.890;2022-09-24T00:30:53;11.70;99.90
25436;DHT22;13363;52.772;-3.890;2022-09-24T00:33:19;11.60;99.90
25436;DHT22;13363;52.772;-3.890;2022-09-24T00:35:45;11.60;99.90
25436;DHT22;13363;52.772;-3.890;2022-09-24T00:38:11;11.60;99.90
25436;DHT22;13363;52.772;-3.890;2022-09-24T00:40:37;11.50;99.90
25436;DHT22;13363;52.772;-3.890;2022-09-24T00:45:50;11.50;99.90
25436;DHT22;13363;52.772;-3.890;2022-09-24T00:48:17;11.50;99.90
25436;DHT22;13363;52.772;-3.890;2022-09-24T00:50:43;11.40;99.90
25436;DHT22;13363;52.772;-3.890;2022-09-24T00:53:14;11.50;99.90
25436;DHT22;13363;52.772;-3.890;2022-09-24T00:55:43;11.40;99.90
25436;DHT22;13363;52.772;-3.890;2022-09-24T00:58:11;11.40;99.90
25436;DHT22;13363;52.772;-3.890;2022-09-24T01:00:41;11.40;99.90
25436;DHT22;13363;52.772;-3.890;2022-09-24T01:03:21;11.40;99.90
25436;DHT22;13363;52.772;-3.890;2022-09-24T01:05:48;11.40;99.90
25436;DHT22;13363;52.772;-3.890;2022-09-24T01:08:16;11.30;99.90
25436;DHT22;13363;52.772;-3.890;2022-09-24T01:19:17;11.30;99.90
25436;DHT22;13363;52.772;-3.890;2022-09-24T01:21:53;11.20;99.90
25436;DHT22;13363;52.772;-3.890;2022-09-24T01:27:15;11.20;99.90
25436;DHT22;13363;52.772;-3.890;2022-09-24T01:38:01;11.20;99.90
25436;DHT22;13363;52.772;-3.890;2022-09-24T01:40:29;11.20;99.90
25436;DHT22;13363;52.772;-3.890;2022-09-24T01:42:57;11.10;99.90
25436;DHT22;13363;52.772;-3.890;2022-09-24T01:45:25;11.10;99.90
25436;DHT22;13363;52.772;-3.890;2022-09-24T01:47:58;11.10;99.90
25436;DHT22;13363;52.772;-3.890;2022-09-24T01:50:32;11.10;99.90
25436;DHT22;13363;52.772;-3.890;2022-09-24T01:53:03;11.10;99.90
25436;DHT22;13363;52.772;-3.890;2022-09-24T01:55:35;11.00;99.90
25436;DHT22;13363;52.772;-3.890;2022-09-24T01:58:13;11.00;99.90
25436;DHT22;13363;52.772;-3.890;2022-09-24T02:00:43;11.00;99.90
25436;DHT22;13363;52.772;-3.890;2022-09-24T02:03:15;11.00;99.90
25436;DHT22;13363;52.772;-3.890;2022-09-24T02:05:55;10.90;99.90
25436;DHT22;13363;52.772;-3.890;2022-09-24T02:08:37;10.90;99.90
25436;DHT22;13363;52.772;-3.890;2022-09-24T02:11:13;10.80;99.90
25436;DHT22;13363;52.772;-3.890;2022-09-24T02:13:48;10.80;99.90
25436;DHT22;13363;52.772;-3.890;2022-09-24T02:16:21;10.80;99.90
25436;DHT22;13363;52.772;-3.890;2022-09-24T02:18:51;10.80;99.90
25436;DHT22;13363;52.772;-3.890;2022-09-24T02:21:21;10.70;99.90
25436;DHT22;13363;52.772;-3.890;2022-09-24T02:24:03;10.70;99.90
25436;DHT22;13363;52.772;-3.890;2022-09-24T02:26:30;10.70;99.90
25436;DHT22;13363;52.772;-3.890;2022-09-24T02:28:56;10.70;99.90
25436;DHT22;13363;52.772;-3.890;2022-09-24T02:31:30;10.70;99.90
25436;DHT22;13363;52.772;-3.890;2022-09-24T02:33:59;10.60;99.90
25436;DHT22;13363;52.772;-3.890;2022-09-24T02:36:50;10.60;99.90
25436;DHT22;13363;52.772;-3.890;2022-09-24T02:39:17;10.60;99.90
25436;DHT22;13363;52.772;-3.890;2022-09-24T02:41:47;10.70;99.90
25436;DHT22;13363;52.772;-3.890;2022-09-24T02:44:15;10.70;99.90
25436;DHT22;13363;52.772;-3.890;2022-09-24T02:46:42;10.70;99.90
25436;DHT22;13363;52.772;-3.890;2022-09-24T02:49:09;10.70;99.90
25436;DHT22;13363;52.772;-3.890;2022-09-24T02:51:35;10.70;99.90
25436;DHT22;13363;52.772;-3.890;2022-09-24T02:54:02;10.70;99.90
25436;DHT22;13363;52.772;-3.890;2022-09-24T02:56:29;10.70;99.90
25436;DHT22;13363;52.772;-3.890;2022-09-24T02:58:55;10.70;99.90
25436;DHT22;13363;52.772;-3.890;2022-09-24T03:03:47;10.70;99.90
25436;DHT22;13363;52.772;-3.890;2022-09-24T03:06:14;10.70;99.90
25436;DHT22;13363;52.772;-3.890;2022-09-24T03:08:40;10.70;99.90
25436;DHT22;13363;52.772;-3.890;2022-09-24T03:11:10;10.80;99.90
25436;DHT22;13363;52.772;-3.890;2022-09-24T03:13:37;10.80;99.90
25436;DHT22;13363;52.772;-3.890;2022-09-24T03:16:04;10.80;99.90
25436;DHT22;13363;52.772;-3.890;2022-09-24T03:18:30;10.80;99.90
25436;DHT22;13363;52.772;-3.890;2022-09-24T03:21:03;10.80;99.90
25436;DHT22;13363;52.772;-3.890;2022-09-24T03:23:29;10.70;99.90
25436;DHT22;13363;52.772;-3.890;2022-09-24T03:25:55;10.70;99.90
25436;DHT22;13363;52.772;-3.890;2022-09-24T03:28:22;10.80;99.90
25436;DHT22;13363;52.772;-3.890;2022-09-24T03:30:48;10.90;99.90
25436;DHT22;13363;52.772;-3.890;2022-09-24T03:36:12;10.90;99.90
25436;DHT22;13363;52.772;-3.890;2022-09-24T03:38:39;10.90;99.90
25436;DHT22;13363;52.772;-3.890;2022-09-24T03:41:07;10.90;99.90
25436;DHT22;13363;52.772;-3.890;2022-09-24T03:43:33;10.90;99.90
25436;DHT22;13363;52.772;-3.890;2022-09-24T03:45:59;10.90;99.90
25436;DHT22;13363;52.772;-3.890;2022-09-24T03:48:26;10.80;99.90
25436;DHT22;13363;52.772;-3.890;2022-09-24T03:50:53;10.80;99.90
25436;DHT22;13363;52.772;-3.890;2022-09-24T03:53:19;10.80;99.90
25436;DHT22;13363;52.772;-3.890;2022-09-24T03:55:56;10.80;99.90
25436;DHT22;13363;52.772;-3.890;2022-09-24T03:58:23;10.80;99.90
25436;DHT22;13363;52.772;-3.890;2022-09-24T04:00:52;10.80;99.90
25436;DHT22;13363;52.772;-3.890;2022-09-24T04:03:20;10.90;99.90
25436;DHT22;13363;52.772;-3.890;2022-09-24T04:05:46;10.80;99.90
25436;DHT22;13363;52.772;-3.890;2022-09-24T04:08:12;10.70;99.90
25436;DHT22;13363;52.772;-3.890;2022-09-24T04:10:38;10.60;99.90
25436;DHT22;13363;52.772;-3.890;2022-09-24T04:13:04;10.50;99.90
25436;DHT22;13363;52.772;-3.890;2022-09-24T04:15:30;10.50;99.90
25436;DHT22;13363;52.772;-3.890;2022-09-24T04:17:58;10.40;99.90
25436;DHT22;13363;52.772;-3.890;2022-09-24T04:20:26;10.30;99.90
25436;DHT22;13363;52.772;-3.890;2022-09-24T04:22:54;10.30;99.90
25436;DHT22;13363;52.772;-3.890;2022-09-24T04:25:21;10.20;99.90
25436;DHT22;13363;52.772;-3.890;2022-09-24T04:27:56;10.10;99.90
25436;DHT22;13363;52.772;-3.890;2022-09-24T04:30:24;10.10;99.90
25436;DHT22;13363;52.772;-3.890;2022-09-24T04:32:50;10.10;99.90
25436;DHT22;13363;52.772;-3.890;2022-09-24T04:35:18;10.00;99.90
25436;DHT22;13363;52.772;-3.890;2022-09-24T04:37:45;10.00;99.90
25436;DHT22;13363;52.772;-3.890;2022-09-24T04:40:11;9.90;99.90
25436;DHT22;13363;52.772;-3.890;2022-09-24T04:42:40;9.80;99.90
25436;DHT22;13363;52.772;-3.890;2022-09-24T04:45:07;9.80;99.90
25436;DHT22;13363;52.772;-3.890;2022-09-24T04:47:35;9.70;99.90
25436;DHT22;13363;52.772;-3.890;2022-09-24T04:50:02;9.70;99.90
25436;DHT22;13363;52.772;-3.890;2022-09-24T04:52:29;9.60;99.90
25436;DHT22;13363;52.772;-3.890;2022-09-24T04:54:57;9.50;99.90
25436;DHT22;13363;52.772;-3.890;2022-09-24T04:57:24;9.40;99.90
25436;DHT22;13363;52.772;-3.890;2022-09-24T04:59:51;9.30;99.90
25436;DHT22;13363;52.772;-3.890;2022-09-24T05:02:17;9.30;99.90
25436;DHT22;13363;52.772;-3.890;2022-09-24T05:04:44;9.20;99.90
25436;DHT22;13363;52.772;-3.890;2022-09-24T05:07:10;9.20;99.90
25436;DHT22;13363;52.772;-3.890;2022-09-24T05:09:36;9.10;99.90
25436;DHT22;13363;52.772;-3.890;2022-09-24T05:12:02;9.10;99.90
25436;DHT22;13363;52.772;-3.890;2022-09-24T05:14:28;9.00;99.90
25436;DHT22;13363;52.772;-3.890;2022-09-24T05:16:55;9.00;99.90
25436;DHT22;13363;52.772;-3.890;2022-09-24T05:19:21;9.00;99.90
25436;DHT22;13363;52.772;-3.890;2022-09-24T05:21:47;9.00;99.90
25436;DHT22;13363;52.772;-3.890;2022-09-24T05:24:13;9.00;99.90
25436;DHT22;13363;52.772;-3.890;2022-09-24T05:26:38;9.00;99.90
25436;DHT22;13363;52.772;-3.890;2022-09-24T05:29:41;8.90;99.90
25436;DHT22;13363;52.772;-3.890;2022-09-24T05:32:16;8.90;99.90
25436;DHT22;13363;52.772;-3.890;2022-09-24T05:34:43;8.90;99.90
25436;DHT22;13363;52.772;-3.890;2022-09-24T05:37:10;8.80;99.90
25436;DHT22;13363;52.772;-3.890;2022-09-24T05:39:37;8.80;99.90
25436;DHT22;13363;52.772;-3.890;2022-09-24T05:42:02;8.80;99.90
25436;DHT22;13363;52.772;-3.890;2022-09-24T05:44:32;8.80;99.90
25436;DHT22;13363;52.772;-3.890;2022-09-24T05:46:58;8.70;99.90
25436;DHT22;13363;52.772;-3.890;2022-09-24T05:49:24;8.70;99.90
25436;DHT22;13363;52.772;-3.890;2022-09-24T05:51:51;8.70;99.90
25436;DHT22;13363;52.772;-3.890;2022-09-24T05:54:17;8.70;99.90
25436;DHT22;13363;52.772;-3.890;2022-09-24T05:56:44;8.70;99.90
25436;DHT22;13363;52.772;-3.890;2022-09-24T05:59:10;8.80;99.90
25436;DHT22;13363;52.772;-3.890;2022-09-24T06:01:36;8.80;99.90
25436;DHT22;13363;52.772;-3.890;2022-09-24T06:04:02;8.90;99.90
25436;DHT22;13363;52.772;-3.890;2022-09-24T06:06:28;8.90;99.90
25436;DHT22;13363;52.772;-3.890;2022-09-24T06:08:55;8.90;99.90
25436;DHT22;13363;52.772;-3.890;2022-09-24T06:11:21;8.90;99.90
25436;DHT22;13363;52.772;-3.890;2022-09-24T06:13:48;8.80;99.90
25436;DHT22;13363;52.772;-3.890;2022-09-24T06:16:15;8.80;99.90
25436;DHT22;13363;52.772;-3.890;2022-09-24T06:18:42;8.80;99.90
25436;DHT22;13363;52.772;-3.890;2022-09-24T06:21:15;8.80;99.90
25436;DHT22;13363;52.772;-3.890;2022-09-24T06:23:44;8.90;99.90
25436;DHT22;13363;52.772;-3.890;2022-09-24T06:26:11;9.00;99.90
25436;DHT22;13363;52.772;-3.890;2022-09-24T06:28:38;9.00;99.90
25436;DHT22;13363;52.772;-3.890;2022-09-24T06:31:05;9.00;99.90
25436;DHT22;13363;52.772;-3.890;2022-09-24T06:33:30;9.00;99.90
25436;DHT22;13363;52.772;-3.890;2022-09-24T06:36:01;9.00;99.90
25436;DHT22;13363;52.772;-3.890;2022-09-24T06:38:28;9.00;99.90
25436;DHT22;13363;52.772;-3.890;2022-09-24T06:40:58;9.00;99.90
25436;DHT22;13363;52.772;-3.890;2022-09-24T06:43:25;9.10;99.90
25436;DHT22;13363;52.772;-3.890;2022-09-24T06:45:54;9.20;99.90
25436;DHT22;13363;52.772;-3.890;2022-09-24T06:48:21;9.30;99.90
25436;DHT22;13363;52.772;-3.890;2022-09-24T06:50:47;9.40;99.90
25436;DHT22;13363;52.772;-3.890;2022-09-24T06:53:14;9.30;99.90
25436;DHT22;13363;52.772;-3.890;2022-09-24T06:55:40;9.40;99.90
25436;DHT22;13363;52.772;-3.890;2022-09-24T06:58:11;9.40;99.90
25436;DHT22;13363;52.772;-3.890;2022-09-24T07:00:39;9.40;99.90
25436;DHT22;13363;52.772;-3.890;2022-09-24T07:03:06;9.50;99.90
25436;DHT22;13363;52.772;-3.890;2022-09-24T07:05:33;9.60;99.90
25436;DHT22;13363;52.772;-3.890;2022-09-24T07:07:59;9.70;99.90
25436;DHT22;13363;52.772;-3.890;2022-09-24T07:10:25;9.80;99.90
25436;DHT22;13363;52.772;-3.890;2022-09-24T07:12:52;9.80;99.90
25436;DHT22;13363;52.772;-3.890;2022-09-24T07:15:18;9.90;99.90
25436;DHT22;13363;52.772;-3.890;2022-09-24T07:17:44;10.00;99.90
25436;DHT22;13363;52.772;-3.890;2022-09-24T07:20:10;9.90;99.90
25436;DHT22;13363;52.772;-3.890;2022-09-24T07:22:40;9.80;99.90
25436;DHT22;13363;52.772;-3.890;2022-09-24T07:25:10;9.80;99.90
25436;DHT22;13363;52.772;-3.890;2022-09-24T07:27:37;9.70;99.90
25436;DHT22;13363;52.772;-3.890;2022-09-24T07:30:05;9.80;99.90
25436;DHT22;13363;52.772;-3.890;2022-09-24T07:32:31;9.70;99.90
25436;DHT22;13363;52.772;-3.890;2022-09-24T07:34:57;9.90;99.90
25436;DHT22;13363;52.772;-3.890;2022-09-24T07:37:23;10.00;99.90
25436;DHT22;13363;52.772;-3.890;2022-09-24T07:39:49;10.10;99.90
25436;DHT22;13363;52.772;-3.890;2022-09-24T07:42:15;10.10;99.90
25436;DHT22;13363;52.772;-3.890;2022-09-24T07:44:41;10.10;99.90
25436;DHT22;13363;52.772;-3.890;2022-09-24T07:47:07;10.10;99.90
25436;DHT22;13363;52.772;-3.890;2022-09-24T07:49:33;10.10;99.90
25436;DHT22;13363;52.772;-3.890;2022-09-24T07:51:59;10.20;99.90
25436;DHT22;13363;52.772;-3.890;2022-09-24T07:54:25;10.00;99.90
25436;DHT22;13363;52.772;-3.890;2022-09-24T07:56:51;10.10;99.90
25436;DHT22;13363;52.772;-3.890;2022-09-24T07:59:17;10.00;99.90
25436;DHT22;13363;52.772;-3.890;2022-09-24T08:01:44;10.00;99.90
25436;DHT22;13363;52.772;-3.890;2022-09-24T08:04:10;10.00;99.90
25436;DHT22;13363;52.772;-3.890;2022-09-24T08:06:36;9.90;99.90
25436;DHT22;13363;52.772;-3.890;2022-09-24T08:09:03;9.90;99.90
25436;DHT22;13363;52.772;-3.890;2022-09-24T08:11:29;9.90;99.90
25436;DHT22;13363;52.772;-3.890;2022-09-24T08:13:56;10.00;99.90
25436;DHT22;13363;52.772;-3.890;2022-09-24T08:16:22;10.20;99.90
25436;DHT22;13363;52.772;-3.890;2022-09-24T08:18:50;10.30;99.90
25436;DHT22;13363;52.772;-3.890;2022-09-24T08:21:16;10.30;99.90
25436;DHT22;13363;52.772;-3.890;2022-09-24T08:23:42;10.10;99.90
25436;DHT22;13363;52.772;-3.890;2022-09-24T08:26:09;10.20;99.90
25436;DHT22;13363;52.772;-3.890;2022-09-24T08:28:36;10.30;99.90
25436;DHT22;13363;52.772;-3.890;2022-09-24T08:31:04;10.50;99.90
25436;DHT22;13363;52.772;-3.890;2022-09-24T08:33:34;10.70;99.90
25436;DHT22;13363;52.772;-3.890;2022-09-24T08:36:05;11.00;99.90
25436;DHT22;13363;52.772;-3.890;2022-09-24T08:38:32;11.10;99.90
25436;DHT22;13363;52.772;-3.890;2022-09-24T08:43:45;11.00;99.90
25436;DHT22;13363;52.772;-3.890;2022-09-24T08:46:44;11.20;99.90
25436;DHT22;13363;52.772;-3.890;2022-09-24T08:49:45;11.40;99.90
25436;DHT22;13363;52.772;-3.890;2022-09-24T08:52:36;11.50;99.90
25436;DHT22;13363;52.772;-3.890;2022-09-24T09:00:56;11.80;99.90
25436;DHT22;13363;52.772;-3.890;2022-09-24T09:03:52;11.80;99.90
25436;DHT22;13363;52.772;-3.890;2022-09-24T09:06:49;11.80;99.90
25436;DHT22;13363;52.772;-3.890;2022-09-24T09:12:17;12.20;99.90
25436;DHT22;13363;52.772;-3.890;2022-09-24T09:18:01;12.30;99.90
25436;DHT22;13363;52.772;-3.890;2022-09-24T09:20:54;13.10;99.90
25436;DHT22;13363;52.772;-3.890;2022-09-24T09:23:21;14.30;99.90
25436;DHT22;13363;52.772;-3.890;2022-09-24T09:25:57;15.80;99.90
25436;DHT22;13363;52.772;-3.890;2022-09-24T09:28:28;16.30;99.90
25436;DHT22;13363;52.772;-3.890;2022-09-24T09:31:15;17.10;99.90
25436;DHT22;13363;52.772;-3.890;2022-09-24T09:39:30;18.90;99.90
25436;DHT22;13363;52.772;-3.890;2022-09-24T09:44:44;18.90;99.90
25436;DHT22;13363;52.772;-3.890;2022-09-24T09:50:05;18.40;99.90
25436;DHT22;13363;52.772;-3.890;2022-09-24T09:52:33;18.30;99.90
25436;DHT22;13363;52.772;-3.890;2022-09-24T09:55:01;19.20;99.90
25436;DHT22;13363;52.772;-3.890;2022-09-24T09:57:30;19.80;99.90
25436;DHT22;13363;52.772;-3.890;2022-09-24T09:59:56;19.40;99.90
25436;DHT22;13363;52.772;-3.890;2022-09-24T10:02:32;19.50;99.90
25436;DHT22;13363;52.772;-3.890;2022-09-24T10:05:04;19.40;99.90
25436;DHT22;13363;52.772;-3.890;2022-09-24T10:07:31;19.70;99.90
25436;DHT22;13363;52.772;-3.890;2022-09-24T10:12:41;19.80;99.90
25436;DHT22;13363;52.772;-3.890;2022-09-24T10:17:41;18.30;99.90
25436;DHT22;13363;52.772;-3.890;2022-09-24T10:22:36;17.10;99.90
25436;DHT22;13363;52.772;-3.890;2022-09-24T10:25:03;16.70;99.90
25436;DHT22;13363;52.772;-3.890;2022-09-24T10:27:36;16.30;99.90
25436;DHT22;13363;52.772;-3.890;2022-09-24T10:30:14;16.20;99.90
25436;DHT22;13363;52.772;-3.890;2022-09-24T10:33:00;16.10;99.90
25436;DHT22;13363;52.772;-3.890;2022-09-24T10:35:35;16.10;99.90
25436;DHT22;13363;52.772;-3.890;2022-09-24T10:38:18;16.20;99.90
25436;DHT22;13363;52.772;-3.890;2022-09-24T10:40:44;16.30;99.90
25436;DHT22;13363;52.772;-3.890;2022-09-24T10:43:20;16.60;99.90
25436;DHT22;13363;52.772;-3.890;2022-09-24T10:46:00;16.50;99.90
25436;DHT22;13363;52.772;-3.890;2022-09-24T10:51:35;17.10;99.90
25436;DHT22;13363;52.772;-3.890;2022-09-24T10:56:58;18.00;99.90
25436;DHT22;13363;52.772;-3.890;2022-09-24T10:59:43;18.20;99.90
25436;DHT22;13363;52.772;-3.890;2022-09-24T11:04:41;19.10;99.90
25436;DHT22;13363;52.772;-3.890;2022-09-24T11:12:58;19.30;99.90
25436;DHT22;13363;52.772;-3.890;2022-09-24T11:15:55;19.10;99.90
25436;DHT22;13363;52.772;-3.890;2022-09-24T11:23:58;17.80;99.90
25436;DHT22;13363;52.772;-3.890;2022-09-24T11:27:03;17.80;99.90
25436;DHT22;13363;52.772;-3.890;2022-09-24T11:29:46;17.80;99.90
25436;DHT22;13363;52.772;-3.890;2022-09-24T11:37:57;17.10;99.90
25436;DHT22;13363;52.772;-3.890;2022-09-24T11:54:05;16.90;99.90
25436;DHT22;13363;52.772;-3.890;2022-09-24T11:56:41;16.60;99.90
25436;DHT22;13363;52.772;-3.890;2022-09-24T12:01:48;16.20;99.90
25436;DHT22;13363;52.772;-3.890;2022-09-24T12:06:51;16.40;99.90
25436;DHT22;13363;52.772;-3.890;2022-09-24T12:09:25;16.30;99.90
25436;DHT22;13363;52.772;-3.890;2022-09-24T12:11:58;16.40;99.90
25436;DHT22;13363;52.772;-3.890;2022-09-24T12:15:11;16.50;99.90
25436;DHT22;13363;52.772;-3.890;2022-09-24T12:17:45;16.60;99.90
25436;DHT22;13363;52.772;-3.890;2022-09-24T12:20:29;16.70;99.90
25436;DHT22;13363;52.772;-3.890;2022-09-24T12:23:03;16.80;99.90
25436;DHT22;13363;52.772;-3.890;2022-09-24T12:25:37;16.80;99.90
25436;DHT22;13363;52.772;-3.890;2022-09-24T12:28:05;16.70;99.90
25436;DHT22;13363;52.772;-3.890;2022-09-24T12:30:48;16.50;99.90
25436;DHT22;13363;52.772;-3.890;2022-09-24T12:36:53;16.50;99.90
25436;DHT22;13363;52.772;-3.890;2022-09-24T12:39:25;16.60;1.00
25436;DHT22;13363;52.772;-3.890;2022-09-24T12:42:07;16.80;99.90
25436;DHT22;13363;52.772;-3.890;2022-09-24T12:44:54;17.00;1.00
25436;DHT22;13363;52.772;-3.890;2022-09-24T12:47:24;17.40;1.00
25436;DHT22;13363;52.772;-3.890;2022-09-24T12:49:57;17.70;1.00
25436;DHT22;13363;52.772;-3.890;2022-09-24T12:55:01;17.80;11.80
25436;DHT22;13363;52.772;-3.890;2022-09-24T12:57:35;17.50;99.90
25436;DHT22;13363;52.772;-3.890;2022-09-24T13:03:00;17.30;99.90
25436;DHT22;13363;52.772;-3.890;2022-09-24T13:11:04;17.40;1.00
25436;DHT22;13363;52.772;-3.890;2022-09-24T13:13:35;17.60;1.00
25436;DHT22;13363;52.772;-3.890;2022-09-24T13:16:19;17.80;1.00
25436;DHT22;13363;52.772;-3.890;2022-09-24T13:18:53;18.00;1.00
25436;DHT22;13363;52.772;-3.890;2022-09-24T13:21:22;18.40;1.00
25436;DHT22;13363;52.772;-3.890;2022-09-24T13:23:49;18.00;1.00
25436;DHT22;13363;52.772;-3.890;2022-09-24T13:26:34;18.10;1.00
25436;DHT22;13363;52.772;-3.890;2022-09-24T13:29:22;18.20;1.00
25436;DHT22;13363;52.772;-3.890;2022-09-24T13:31:50;18.40;1.00
25436;DHT22;13363;52.772;-3.890;2022-09-24T13:34:24;18.30;99.90
25436;DHT22;13363;52.772;-3.890;2022-09-24T13:39:50;18.00;99.90
25436;DHT22;13363;52.772;-3.890;2022-09-24T13:42:26;17.90;99.90
25436;DHT22;13363;52.772;-3.890;2022-09-24T13:44:57;18.10;99.90
25436;DHT22;13363;52.772;-3.890;2022-09-24T13:47:43;18.40;99.90
25436;DHT22;13363;52.772;-3.890;2022-09-24T13:50:36;18.70;99.90
25436;DHT22;13363;52.772;-3.890;2022-09-24T13:53:23;18.50;99.90
25436;DHT22;13363;52.772;-3.890;2022-09-24T13:55:57;18.00;1.00
25436;DHT22;13363;52.772;-3.890;2022-09-24T13:58:34;18.30;1.00
25436;DHT22;13363;52.772;-3.890;2022-09-24T14:01:05;18.30;1.00
25436;DHT22;13363;52.772;-3.890;2022-09-24T14:03:35;18.70;1.00
25436;DHT22;13363;52.772;-3.890;2022-09-24T14:06:13;18.70;99.90
25436;DHT22;13363;52.772;-3.890;2022-09-24T14:08:44;18.30;99.90
25436;DHT22;13363;52.772;-3.890;2022-09-24T14:11:29;18.00;1.00
25436;DHT22;13363;52.772;-3.890;2022-09-24T14:13:55;17.70;1.00
25436;DHT22;13363;52.772;-3.890;2022-09-24T14:16:23;17.60;1.00
25436;DHT22;13363;52.772;-3.890;2022-09-24T14:19:04;17.70;1.00
25436;DHT22;13363;52.772;-3.890;2022-09-24T14:21:44;18.00;1.00
25436;DHT22;13363;52.772;-3.890;2022-09-24T14:24:24;18.10;1.00
25436;DHT22;13363;52.772;-3.890;2022-09-24T14:32:32;17.80;1.00
25436;DHT22;13363;52.772;-3.890;2022-09-24T14:35:18;17.80;99.90
25436;DHT22;13363;52.772;-3.890;2022-09-24T14:38:02;18.00;99.90
25436;DHT22;13363;52.772;-3.890;2022-09-24T14:40:41;18.20;99.90
25436;DHT22;13363;52.772;-3.890;2022-09-24T14:45:41;18.60;99.60
25436;DHT22;13363;52.772;-3.890;2022-09-24T14:48:30;18.80;99.90
25436;DHT22;13363;52.772;-3.890;2022-09-24T14:50:56;19.00;99.90
25436;DHT22;13363;52.772;-3.890;2022-09-24T14:53:34;18.90;99.90
25436;DHT22;13363;52.772;-3.890;2022-09-24T14:56:18;18.50;99.90
25436;DHT22;13363;52.772;-3.890;2022-09-24T14:58:44;18.10;1.00
25436;DHT22;13363;52.772;-3.890;2022-09-24T15:01:13;17.90;1.00
25436;DHT22;13363;52.772;-3.890;2022-09-24T15:03:46;17.60;1.00
25436;DHT22;13363;52.772;-3.890;2022-09-24T15:06:30;17.40;1.00
25436;DHT22;13363;52.772;-3.890;2022-09-24T15:09:25;17.30;1.00
25436;DHT22;13363;52.772;-3.890;2022-09-24T15:11:53;17.40;1.00
25436;DHT22;13363;52.772;-3.890;2022-09-24T15:14:30;17.60;1.00
25436;DHT22;13363;52.772;-3.890;2022-09-24T15:17:08;17.70;99.90
25436;DHT22;13363;52.772;-3.890;2022-09-24T15:19:35;17.70;1.00
25436;DHT22;13363;52.772;-3.890;2022-09-24T15:22:02;17.70;1.00
25436;DHT22;13363;52.772;-3.890;2022-09-24T15:25:02;17.50;1.00
25436;DHT22;13363;52.772;-3.890;2022-09-24T15:27:30;17.50;1.00
25436;DHT22;13363;52.772;-3.890;2022-09-24T15:29:58;17.40;14.70
25436;DHT22;13363;52.772;-3.890;2022-09-24T15:32:26;17.00;31.40
25436;DHT22;13363;52.772;-3.890;2022-09-24T15:34:52;16.90;99.90
25436;DHT22;13363;52.772;-3.890;2022-09-24T15:37:23;16.80;99.90
25436;DHT22;13363;52.772;-3.890;2022-09-24T15:39:51;16.70;99.90
25436;DHT22;13363;52.772;-3.890;2022-09-24T15:42:21;16.60;1.00
25436;DHT22;13363;52.772;-3.890;2022-09-24T15:44:48;16.60;1.00
25436;DHT22;13363;52.772;-3.890;2022-09-24T15:47:16;16.60;1.00
25436;DHT22;13363;52.772;-3.890;2022-09-24T15:49:42;16.50;21.30
25436;DHT22;13363;52.772;-3.890;2022-09-24T15:55:16;16.70;1.00
25436;DHT22;13363;52.772;-3.890;2022-09-24T15:57:43;16.60;1.00
25436;DHT22;13363;52.772;-3.890;2022-09-24T16:00:17;16.50;99.90
25436;DHT22;13363;52.772;-3.890;2022-09-24T16:02:50;16.60;99.90
25436;DHT22;13363;52.772;-3.890;2022-09-24T16:05:17;16.60;79.10
25436;DHT22;13363;52.772;-3.890;2022-09-24T16:07:44;16.70;99.90
25436;DHT22;13363;52.772;-3.890;2022-09-24T16:10:11;16.70;1.00
25436;DHT22;13363;52.772;-3.890;2022-09-24T16:12:37;16.70;1.00
25436;DHT22;13363;52.772;-3.890;2022-09-24T16:15:04;16.80;99.90
25436;DHT22;13363;52.772;-3.890;2022-09-24T16:17:30;16.80;99.90
25436;DHT22;13363;52.772;-3.890;2022-09-24T16:19:56;16.80;1.00
25436;DHT22;13363;52.772;-3.890;2022-09-24T16:22:22;16.70;1.00
25436;DHT22;13363;52.772;-3.890;2022-09-24T16:24:48;16.60;1.00
25436;DHT22;13363;52.772;-3.890;2022-09-24T16:27:14;16.50;1.00
25436;DHT22;13363;52.772;-3.890;2022-09-24T16:33:02;16.20;99.90
25436;DHT22;13363;52.772;-3.890;2022-09-24T16:35:28;16.10;99.90
25436;DHT22;13363;52.772;-3.890;2022-09-24T16:37:53;16.00;1.00
25436;DHT22;13363;52.772;-3.890;2022-09-24T16:40:19;16.00;1.00
25436;DHT22;13363;52.772;-3.890;2022-09-24T16:42:45;16.00;1.00
25436;DHT22;13363;52.772;-3.890;2022-09-24T16:45:11;15.80;99.90
25436;DHT22;13363;52.772;-3.890;2022-09-24T16:47:37;15.80;1.00
25436;DHT22;13363;52.772;-3.890;2022-09-24T16:50:03;15.80;99.90
25436;DHT22;13363;52.772;-3.890;2022-09-24T16:52:30;15.90;99.90
25436;DHT22;13363;52.772;-3.890;2022-09-24T16:54:56;15.80;1.00
25436;DHT22;13363;52.772;-3.890;2022-09-24T16:57:25;15.80;99.90
25436;DHT22;13363;52.772;-3.890;2022-09-24T16:59:55;15.90;1.00
25436;DHT22;13363;52.772;-3.890;2022-09-24T17:02:22;15.90;1.00
25436;DHT22;13363;52.772;-3.890;2022-09-24T17:04:48;15.90;1.00
25436;DHT22;13363;52.772;-3.890;2022-09-24T17:07:14;15.90;1.00
25436;DHT22;13363;52.772;-3.890;2022-09-24T17:09:40;15.90;99.90
25436;DHT22;13363;52.772;-3.890;2022-09-24T17:12:24;15.90;1.00
25436;DHT22;13363;52.772;-3.890;2022-09-24T17:14:49;15.80;99.90
25436;DHT22;13363;52.772;-3.890;2022-09-24T17:17:15;15.80;99.90
25436;DHT22;13363;52.772;-3.890;2022-09-24T17:19:41;15.80;99.90
25436;DHT22;13363;52.772;-3.890;2022-09-24T17:22:08;15.60;1.00
25436;DHT22;13363;52.772;-3.890;2022-09-24T17:24:34;15.60;99.90
25436;DHT22;13363;52.772;-3.890;2022-09-24T17:27:04;15.60;1.00
25436;DHT22;13363;52.772;-3.890;2022-09-24T17:29:30;15.60;1.00
25436;DHT22;13363;52.772;-3.890;2022-09-24T17:31:56;15.70;99.90
25436;DHT22;13363;52.772;-3.890;2022-09-24T17:34:22;15.70;99.90
25436;DHT22;13363;52.772;-3.890;2022-09-24T17:36:48;15.70;1.00
25436;DHT22;13363;52.772;-3.890;2022-09-24T17:39:14;15.60;99.90
25436;DHT22;13363;52.772;-3.890;2022-09-24T17:41:40;15.50;1.00
25436;DHT22;13363;52.772;-3.890;2022-09-24T17:44:06;15.50;1.00
25436;DHT22;13363;52.772;-3.890;2022-09-24T17:46:36;15.40;1.00
25436;DHT22;13363;52.772;-3.890;2022-09-24T17:49:03;15.30;1.00
25436;DHT22;13363;52.772;-3.890;2022-09-24T17:51:34;15.30;99.90
25436;DHT22;13363;52.772;-3.890;2022-09-24T17:54:07;15.20;99.90
25436;DHT22;13363;52.772;-3.890;2022-09-24T17:56:34;15.20;99.90
25436;DHT22;13363;52.772;-3.890;2022-09-24T17:59:09;15.10;99.90
25436;DHT22;13363;52.772;-3.890;2022-09-24T18:01:38;15.10;99.90
25436;DHT22;13363;52.772;-3.890;2022-09-24T18:04:08;15.10;99.90